M I D A S
Marine Information and Data Acquisition System
Tripno 1738 of the Zeeleeuw from 2009-07-24 06:57:02 to 2009-07-24 14:23:39
Back to CruiseResearch ActivitiesStationsMapUnderway DataData graphs

EquipmentUnitsComments
TimeDGPSUTC
LatitudeDGPSDM.mWGS84
LongitudeDGPSDM.mWGS84
SpeedMeteo Stationm/sRelative wind speed
DirectionMeteo StationdegRelative wind direction
TemperatureMeteo Stationdeg CelciusAir temperature
PressureMeteo StationPaAtmospheric pressure
HumidityMeteo Station%Relative humidity
Missing or incorrect values are displayed as -999
Metereological data collected by the RV Zeeleeuw from 2009-07-24 06:43:54 to 2009-07-24 14:21:55
                                                                                    Next 1000 lines
Time Latitude Longitude Speed Direction Temperature Pressure Humidity
2009-07-24 06:44:05 51°13.662 2°55.952 5 33 14.4 101080 87
2009-07-24 06:44:09 51°13.663 2°55.949 4.3 31 14.5 101080 85
2009-07-24 06:44:14 51°13.664 2°55.945 4.1 40 14.5 101080 85
2009-07-24 06:44:21 51°13.666 2°55.938 3.7 24 14.5 101090 86
2009-07-24 06:44:26 51°13.668 2°55.932 3.4 34 14.5 101090 86
2009-07-24 06:44:32 51°13.67 2°55.925 2.7 38 14.4 101090 87
2009-07-24 06:44:37 51°13.672 2°55.918 1.8 42 14.4 101090 87
2009-07-24 06:44:43 51°13.674 2°55.91 2.4 35 14.4 101080 86
2009-07-24 06:44:48 51°13.676 2°55.902 2.3 57 14.4 101080 86
2009-07-24 06:44:53 51°13.677 2°55.895 1.7 39 14.4 101080 86
2009-07-24 06:44:58 51°13.679 2°55.888 2 40 14.4 101080 86
2009-07-24 06:45:03 51°13.681 2°55.881 2.4 27 14.5 101080 86
2009-07-24 06:45:08 51°13.683 2°55.874 0.9 35 14.5 101080 86
2009-07-24 06:45:13 51°13.684 2°55.866 2.1 23 14.5 101090 86
2009-07-24 06:45:18 51°13.686 2°55.859 2.6 52 14.5 101090 86
2009-07-24 06:45:23 51°13.687 2°55.852 2.9 26 14.5 101080 87
2009-07-24 06:45:28 51°13.688 2°55.845 3.7 56 14.5 101080 87
2009-07-24 06:45:33 51°13.69 2°55.838 4.1 38 14.5 101080 86
2009-07-24 06:45:38 51°13.691 2°55.83 2.7 52 14.5 101080 86
2009-07-24 06:45:43 51°13.692 2°55.823 3.9 45 14.5 101080 86
2009-07-24 06:45:48 51°13.692 2°55.817 4 43 14.5 101080 86
2009-07-24 06:45:53 51°13.694 2°55.81 3.6 40 14.5 101080 87
2009-07-24 06:45:57 51°13.694 2°55.805 4.4 29 14.5 101080 87
2009-07-24 06:46:03 51°13.695 2°55.797 4.9 36 14.5 101080 88
2009-07-24 06:46:08 51°13.696 2°55.791 3.5 40 14.5 101080 88
2009-07-24 06:46:12 51°13.696 2°55.786 4.6 28 14.5 101080 87
2009-07-24 06:46:17 51°13.697 2°55.78 4.1 33 14.5 101080 87
2009-07-24 06:46:23 51°13.697 2°55.773 4.3 31 14.5 101080 87
2009-07-24 06:46:28 51°13.698 2°55.767 5.3 34 14.5 101080 87
2009-07-24 06:46:32 51°13.698 2°55.763 4.6 45 14.5 101080 85
2009-07-24 06:46:37 51°13.698 2°55.758 3.6 37 14.5 101080 85
2009-07-24 06:46:43 51°13.698 2°55.753 4.3 37 14.5 101080 87
2009-07-24 06:46:48 51°13.698 2°55.748 4.6 30 14.5 101080 87
2009-07-24 06:46:52 51°13.699 2°55.745 3.6 39 14.5 101080 86
2009-07-24 06:46:56 51°13.699 2°55.743 3.1 35 14.5 101080 86
2009-07-24 06:47:01 51°13.699 2°55.74 4.6 42 14.6 101080 86
2009-07-24 06:47:06 51°13.7 2°55.738 5.6 36 14.6 101080 86
2009-07-24 06:47:12 51°13.7 2°55.736 5.1 37 14.6 101080 87
2009-07-24 06:47:16 51°13.701 2°55.736 3.9 56 14.6 101080 87
2009-07-24 06:47:20 51°13.701 2°55.735 4.7 27 14.6 101080 87
2009-07-24 06:47:25 51°13.702 2°55.735 5.8 53 14.6 101080 87
2009-07-24 06:47:31 51°13.704 2°55.735 4.3 20 14.6 101080 86
2009-07-24 06:47:36 51°13.705 2°55.736 3.9 56 14.6 101080 86
2009-07-24 06:47:40 51°13.706 2°55.736 4.7 26 14.6 101080 87
2009-07-24 06:47:45 51°13.708 2°55.737 3 75 14.6 101080 87
2009-07-24 06:47:51 51°13.71 2°55.737 2.7 21 14.6 101080 86
2009-07-24 06:47:56 51°13.712 2°55.738 2.7 51 14.6 101080 86
2009-07-24 06:48:00 51°13.714 2°55.738 2.8 25 14.5 101080 85
2009-07-24 06:48:05 51°13.716 2°55.739 2.1 56 14.5 101080 85
2009-07-24 06:48:10 51°13.72 2°55.739 2.4 25 14.5 101090 87
2009-07-24 06:48:15 51°13.724 2°55.738 3.3 55 14.5 101090 87
2009-07-24 06:48:20 51°13.728 2°55.737 2.3 268 14.6 101090 85
2009-07-24 06:48:25 51°13.733 2°55.734 3.2 309 14.6 101090 85
2009-07-24 06:48:29 51°13.737 2°55.731 2.4 265 14.6 101090 87
2009-07-24 06:48:34 51°13.742 2°55.726 5.2 309 14.6 101090 87
2009-07-24 06:48:39 51°13.747 2°55.722 3.7 250 14.6 101090 85
2009-07-24 06:48:44 51°13.753 2°55.716 4.1 302 14.6 101090 85
2009-07-24 06:48:49 51°13.76 2°55.709 3.7 20 14.6 101080 87
2009-07-24 06:48:54 51°13.766 2°55.702 6.5 302 14.6 101080 87
2009-07-24 06:48:59 51°13.774 2°55.695 5.1 21 14.6 101090 88
2009-07-24 06:49:04 51°13.782 2°55.687 3.5 310 14.6 101090 88
2009-07-24 06:49:09 51°13.79 2°55.678 4.4 245 14.6 101090 86
2009-07-24 06:49:14 51°13.799 2°55.67 3.3 307 14.6 101090 86
2009-07-24 06:49:18 51°13.806 2°55.663 2.7 250 14.6 101080 87
2009-07-24 06:49:24 51°13.817 2°55.653 5.3 308 14.6 101080 87
2009-07-24 06:49:29 51°13.827 2°55.644 3.6 246 14.6 101080 85
2009-07-24 06:49:34 51°13.836 2°55.635 5.2 304 14.6 101080 85
2009-07-24 06:49:39 51°13.847 2°55.626 4.6 23 14.6 101080 85
2009-07-24 06:49:44 51°13.857 2°55.617 2.5 309 14.6 101080 85
2009-07-24 06:49:49 51°13.867 2°55.608 2.3 248 14.7 101080 84
2009-07-24 06:49:53 51°13.876 2°55.602 3.2 310 14.7 101080 84
2009-07-24 06:49:59 51°13.889 2°55.591 2.8 28 14.7 101080 86
2009-07-24 06:50:04 51°13.9 2°55.583 2.9 310 14.7 101080 86
2009-07-24 06:50:09 51°13.911 2°55.574 4 21 14.6 101080 86
2009-07-24 06:50:13 51°13.92 2°55.567 4.5 301 14.6 101080 86
2009-07-24 06:50:19 51°13.933 2°55.557 3.5 27 14.7 101080 84
2009-07-24 06:50:24 51°13.944 2°55.548 4.1 307 14.7 101080 84
2009-07-24 06:50:29 51°13.956 2°55.54 3.2 320 14.7 101080 85
2009-07-24 06:50:34 51°13.967 2°55.531 3 309 14.7 101080 85
2009-07-24 06:50:39 51°13.978 2°55.523 3.6 28 14.7 101080 85
2009-07-24 06:50:44 51°13.989 2°55.514 3.4 309 14.7 101080 85
2009-07-24 06:50:49 51°14.001 2°55.506 2.5 28 14.7 101080 85
2009-07-24 06:50:54 51°14.012 2°55.498 3.2 307 14.7 101080 85
2009-07-24 06:50:59 51°14.024 2°55.49 2.7 25 14.7 101080 86
2009-07-24 06:51:04 51°14.035 2°55.482 3.2 302 14.7 101080 86
2009-07-24 06:51:09 51°14.046 2°55.473 2.9 27 14.7 101080 85
2009-07-24 06:51:14 51°14.058 2°55.465 2 302 14.7 101080 85
2009-07-24 06:51:18 51°14.067 2°55.458 2.7 328 14.8 101080 86
2009-07-24 06:51:24 51°14.08 2°55.448 4.9 306 14.8 101080 86
2009-07-24 06:51:29 51°14.092 2°55.439 4 28 14.8 101080 86
2009-07-24 06:51:34 51°14.103 2°55.43 5.5 309 14.8 101080 86
2009-07-24 06:51:39 51°14.114 2°55.421 3.2 253 14.8 101080 86
2009-07-24 06:51:44 51°14.125 2°55.412 2.6 302 14.8 101080 86
2009-07-24 06:51:49 51°14.136 2°55.403 3.8 22 14.8 101080 86
2009-07-24 06:51:54 51°14.147 2°55.393 4.5 306 14.8 101080 86
2009-07-24 06:51:59 51°14.158 2°55.383 3.6 24 14.8 101080 86
2009-07-24 06:52:04 51°14.169 2°55.374 2.4 303 14.8 101080 86
2009-07-24 06:52:09 51°14.18 2°55.364 2.5 316 14.8 101080 86
2009-07-24 06:52:14 51°14.191 2°55.353 2.8 326 14.8 101080 86
2009-07-24 06:52:19 51°14.201 2°55.342 4.6 326 14.8 101080 85
2009-07-24 06:52:24 51°14.211 2°55.33 5 309 14.8 101080 85
2009-07-24 06:52:29 51°14.222 2°55.317 3.4 23 14.8 101090 84
2009-07-24 06:52:34 51°14.231 2°55.304 6 306 14.8 101090 84
2009-07-24 06:52:39 51°14.241 2°55.291 8.5 24 14.8 101080 87
2009-07-24 06:52:44 51°14.25 2°55.277 6.3 303 14.8 101080 87
2009-07-24 06:52:49 51°14.259 2°55.263 6 19 14.8 101080 85
2009-07-24 06:52:53 51°14.267 2°55.251 4.5 307 14.8 101080 85
2009-07-24 06:52:59 51°14.277 2°55.233 5.3 22 14.8 101080 87
2009-07-24 06:53:04 51°14.286 2°55.218 6.2 303 14.8 101080 87
2009-07-24 06:53:09 51°14.295 2°55.202 8.2 19 14.8 101070 86
2009-07-24 06:53:13 51°14.301 2°55.188 6.7 303 14.8 101070 86
2009-07-24 06:53:19 51°14.312 2°55.169 5.1 23 14.8 101070 85
2009-07-24 06:53:24 51°14.32 2°55.152 7.4 303 14.8 101070 85
2009-07-24 06:53:29 51°14.329 2°55.135 6.6 29 14.8 101070 86
2009-07-24 06:53:33 51°14.336 2°55.122 5.6 302 14.8 101070 86
2009-07-24 06:53:39 51°14.346 2°55.101 5.1 27 14.8 101080 86
2009-07-24 06:53:44 51°14.355 2°55.084 6 308 14.8 101080 86
2009-07-24 06:53:49 51°14.364 2°55.068 8 22 14.8 101070 86
2009-07-24 06:53:53 51°14.371 2°55.055 9.6 309 14.8 101070 86
2009-07-24 06:53:59 51°14.383 2°55.036 9.6 21 14.8 101070 85
2009-07-24 06:54:04 51°14.393 2°55.021 8 309 14.8 101070 85
2009-07-24 06:54:10 51°14.405 2°55.003 6 249 14.9 101080 84
2009-07-24 06:54:13 51°14.411 2°54.994 6.8 307 14.9 101080 84
2009-07-24 06:54:19 51°14.424 2°54.977 7.1 23 14.9 101070 86
2009-07-24 06:54:25 51°14.438 2°54.961 6.4 304 14.9 101070 86
2009-07-24 06:54:30 51°14.449 2°54.947 6.7 248 14.9 101070 85
2009-07-24 06:54:34 51°14.458 2°54.936 7.6 303 14.9 101070 85
2009-07-24 06:54:39 51°14.47 2°54.921 7.2 250 14.9 101070 86
2009-07-24 06:54:44 51°14.482 2°54.907 6.9 307 14.9 101070 86
2009-07-24 06:54:50 51°14.496 2°54.89 7.9 252 14.9 101070 87
2009-07-24 06:54:54 51°14.506 2°54.879 7.3 307 14.9 101070 87
2009-07-24 06:54:59 51°14.518 2°54.865 7 254 14.9 101070 85
2009-07-24 06:55:04 51°14.532 2°54.853 6.2 305 14.9 101070 85
2009-07-24 06:55:09 51°14.545 2°54.842 6.5 258 14.9 101070 86
2009-07-24 06:55:14 51°14.558 2°54.83 6.6 307 14.9 101070 86
2009-07-24 06:55:19 51°14.571 2°54.818 6.8 252 14.9 101070 85
2009-07-24 06:55:24 51°14.585 2°54.806 7.2 304 14.9 101070 85
2009-07-24 06:55:29 51°14.598 2°54.794 6.7 25 15 101070 86
2009-07-24 06:55:34 51°14.612 2°54.781 7.9 302 15 101070 86
2009-07-24 06:55:39 51°14.625 2°54.769 7.5 250 15 101070 86
2009-07-24 06:55:44 51°14.639 2°54.757 6.8 303 15 101070 86
2009-07-24 06:55:49 51°14.653 2°54.744 7.5 250 15 101070 86
2009-07-24 06:55:54 51°14.667 2°54.732 5.3 302 15 101070 86
2009-07-24 06:55:59 51°14.681 2°54.719 8.1 246 15.1 101070 87
2009-07-24 06:56:04 51°14.694 2°54.706 6.2 303 15.1 101070 87
2009-07-24 06:56:10 51°14.711 2°54.691 7.9 245 15.1 101070 84
2009-07-24 06:56:14 51°14.722 2°54.68 7.7 308 15.1 101070 84
2009-07-24 06:56:19 51°14.736 2°54.668 8.2 250 15.1 101070 85
2009-07-24 06:56:24 51°14.749 2°54.655 8.1 303 15.1 101070 85
2009-07-24 06:56:30 51°14.766 2°54.639 7.6 20 15.1 101070 86
2009-07-24 06:56:34 51°14.777 2°54.629 6.6 304 15.1 101070 86
2009-07-24 06:56:39 51°14.791 2°54.616 9.3 248 15.1 101070 85
2009-07-24 06:56:44 51°14.804 2°54.603 8.7 301 15.1 101070 85
2009-07-24 06:56:49 51°14.818 2°54.59 6.3 249 15.1 101070 86
2009-07-24 06:56:54 51°14.832 2°54.578 7 301 15.1 101070 86
2009-07-24 06:56:59 51°14.846 2°54.565 6.4 253 15.1 101070 84
2009-07-24 06:57:03 51°14.857 2°54.555 7.4 305 15.1 101070 84
2009-07-24 06:57:09 51°14.874 2°54.54 8.4 251 15.1 101070 84
2009-07-24 06:57:14 51°14.888 2°54.528 6.2 302 15.1 101070 84
2009-07-24 06:57:19 51°14.902 2°54.516 8.4 252 15.1 101070 85
2009-07-24 06:57:24 51°14.916 2°54.504 6.7 304 15.1 101070 85
2009-07-24 06:57:29 51°14.93 2°54.491 6.6 253 15.1 101070 86
2009-07-24 06:57:34 51°14.944 2°54.479 8.2 305 15.1 101070 86
2009-07-24 06:57:39 51°14.958 2°54.467 7.4 254 15.1 101070 86
2009-07-24 06:57:43 51°14.969 2°54.457 7.1 303 15.1 101070 86
2009-07-24 06:57:49 51°14.986 2°54.443 7.4 252 15.1 101080 86
2009-07-24 06:57:54 51°15 2°54.43 7.4 304 15.1 101080 86
2009-07-24 06:57:59 51°15.014 2°54.418 7.4 253 15.2 101070 85
2009-07-24 06:58:04 51°15.028 2°54.405 6.4 302 15.2 101070 85
2009-07-24 06:58:09 51°15.042 2°54.394 7.2 254 15.2 101070 84
2009-07-24 06:58:14 51°15.056 2°54.382 6.2 302 15.2 101070 84
2009-07-24 06:58:19 51°15.07 2°54.37 8 254 15.2 101070 86
2009-07-24 06:58:24 51°15.084 2°54.357 9.8 304 15.2 101070 86
2009-07-24 06:58:30 51°15.101 2°54.342 8.8 253 15.2 101070 85
2009-07-24 06:58:34 51°15.112 2°54.332 7.8 304 15.2 101070 85
2009-07-24 06:58:39 51°15.126 2°54.319 8.6 251 15.2 101070 85
2009-07-24 06:58:44 51°15.14 2°54.306 8.7 304 15.2 101070 85
2009-07-24 06:58:50 51°15.156 2°54.291 8.4 245 15.3 101070 84
2009-07-24 06:58:54 51°15.167 2°54.28 8.6 309 15.3 101070 84
2009-07-24 06:58:59 51°15.181 2°54.268 8 251 15.2 101070 85
2009-07-24 06:59:04 51°15.195 2°54.255 7.6 304 15.2 101070 85
2009-07-24 06:59:09 51°15.209 2°54.243 8.6 253 15.2 101070 84
2009-07-24 06:59:14 51°15.223 2°54.23 8.1 304 15.2 101070 84
2009-07-24 06:59:19 51°15.237 2°54.218 8.4 257 15.3 101070 85
2009-07-24 06:59:23 51°15.248 2°54.207 8.9 304 15.3 101070 85
2009-07-24 06:59:29 51°15.265 2°54.192 9 250 15.3 101070 86
2009-07-24 06:59:34 51°15.279 2°54.18 8.4 302 15.3 101070 86
2009-07-24 06:59:39 51°15.292 2°54.167 7.6 250 15.3 101070 85
2009-07-24 06:59:43 51°15.304 2°54.157 8.9 308 15.3 101070 85
2009-07-24 06:59:49 51°15.32 2°54.141 7.6 22 15.3 101070 86
2009-07-24 06:59:54 51°15.334 2°54.128 7.6 307 15.3 101070 86
2009-07-24 06:59:59 51°15.348 2°54.115 9.4 249 15.3 101060 86
2009-07-24 07:00:04 51°15.362 2°54.102 9.3 308 15.3 101060 86
2009-07-24 07:00:09 51°15.376 2°54.09 10.2 251 15.3 101070 86
2009-07-24 07:00:14 51°15.39 2°54.076 8.9 305 15.3 101070 86
2009-07-24 07:00:19 51°15.403 2°54.063 9 252 15.3 101060 85
2009-07-24 07:00:24 51°15.417 2°54.05 10.4 306 15.3 101060 85
2009-07-24 07:00:29 51°15.431 2°54.037 10 253 15.3 101060 85
2009-07-24 07:00:34 51°15.445 2°54.023 8.8 308 15.3 101060 85
2009-07-24 07:00:39 51°15.459 2°54.01 7.2 251 15.3 101060 85
2009-07-24 07:00:44 51°15.472 2°53.997 8.5 307 15.3 101060 85
2009-07-24 07:00:50 51°15.489 2°53.98 7.8 253 15.3 101070 86
2009-07-24 07:00:54 51°15.5 2°53.969 8.7 302 15.3 101070 86
2009-07-24 07:00:59 51°15.513 2°53.955 9.8 251 15.3 101070 85
2009-07-24 07:01:04 51°15.527 2°53.941 9.8 307 15.3 101070 85
2009-07-24 07:01:09 51°15.541 2°53.927 10.6 252 15.3 101070 86
2009-07-24 07:01:14 51°15.555 2°53.914 8.5 308 15.3 101070 86
2009-07-24 07:01:19 51°15.568 2°53.9 10.9 254 15.3 101060 84
2009-07-24 07:01:24 51°15.582 2°53.886 9 305 15.3 101060 84
2009-07-24 07:01:29 51°15.596 2°53.873 8.8 252 15.3 101070 84
2009-07-24 07:01:34 51°15.61 2°53.859 10.3 302 15.3 101070 84
2009-07-24 07:01:39 51°15.624 2°53.846 10.6 253 15.3 101070 84
2009-07-24 07:01:44 51°15.638 2°53.832 7.9 306 15.3 101070 84
2009-07-24 07:01:49 51°15.652 2°53.819 7.6 250 15.3 101070 85
2009-07-24 07:01:54 51°15.666 2°53.805 8.7 310 15.3 101070 85
2009-07-24 07:01:59 51°15.679 2°53.792 9.2 253 15.3 101070 84
2009-07-24 07:02:04 51°15.693 2°53.778 8.4 307 15.3 101070 84
2009-07-24 07:02:09 51°15.707 2°53.764 10.3 254 15.3 101070 84
2009-07-24 07:02:14 51°15.721 2°53.75 7.8 307 15.3 101070 84
2009-07-24 07:02:19 51°15.735 2°53.736 9.4 251 15.3 101070 84
2009-07-24 07:02:24 51°15.749 2°53.723 9.2 309 15.3 101070 84
2009-07-24 07:02:29 51°15.762 2°53.709 9.9 256 15.3 101070 85
2009-07-24 07:02:34 51°15.776 2°53.695 7.7 306 15.3 101070 85
2009-07-24 07:02:39 51°15.79 2°53.681 8.1 250 15.3 101070 85
2009-07-24 07:02:44 51°15.804 2°53.667 8.3 304 15.3 101070 85
2009-07-24 07:02:49 51°15.817 2°53.652 8.1 248 15.3 101080 85
2009-07-24 07:02:54 51°15.831 2°53.638 8.2 301 15.3 101080 85
2009-07-24 07:02:59 51°15.845 2°53.624 9.4 249 15.3 101080 85
2009-07-24 07:03:04 51°15.859 2°53.61 8.1 307 15.3 101080 85
2009-07-24 07:03:09 51°15.872 2°53.595 6.9 250 15.4 101070 84
2009-07-24 07:03:14 51°15.886 2°53.581 8.4 304 15.4 101070 84
2009-07-24 07:03:19 51°15.9 2°53.567 9.4 251 15.4 101070 85
2009-07-24 07:03:24 51°15.914 2°53.553 11.2 307 15.4 101070 85
2009-07-24 07:03:29 51°15.927 2°53.539 10.3 252 15.4 101070 84
2009-07-24 07:03:34 51°15.941 2°53.525 10.1 307 15.4 101070 84
2009-07-24 07:03:39 51°15.955 2°53.511 10.5 252 15.4 101070 83
2009-07-24 07:03:44 51°15.969 2°53.497 8.7 304 15.4 101070 83
2009-07-24 07:03:49 51°15.983 2°53.483 11.7 252 15.4 101070 82
2009-07-24 07:03:54 51°15.996 2°53.469 7.9 305 15.4 101070 82
2009-07-24 07:03:59 51°16.01 2°53.455 8.9 251 15.4 101060 81
2009-07-24 07:04:04 51°16.024 2°53.44 9.9 306 15.4 101060 81
2009-07-24 07:04:09 51°16.038 2°53.426 9.9 246 15.4 101080 81
2009-07-24 07:04:14 51°16.052 2°53.412 11.2 306 15.4 101080 81
2009-07-24 07:04:19 51°16.066 2°53.399 9 249 15.4 101070 82
2009-07-24 07:04:24 51°16.08 2°53.385 8.5 310 15.4 101070 82
2009-07-24 07:04:29 51°16.094 2°53.371 9.8 21 15.4 101060 82
2009-07-24 07:04:34 51°16.107 2°53.358 10.4 301 15.4 101060 82
2009-07-24 07:04:39 51°16.121 2°53.344 9 253 15.4 101070 81
2009-07-24 07:04:44 51°16.135 2°53.33 8.6 302 15.4 101070 81
2009-07-24 07:04:49 51°16.149 2°53.316 8.3 253 15.4 101070 82
2009-07-24 07:04:54 51°16.163 2°53.302 9.7 306 15.4 101070 82
2009-07-24 07:04:59 51°16.177 2°53.288 9.1 254 15.4 101060 83
2009-07-24 07:05:04 51°16.191 2°53.273 9.6 302 15.4 101060 83
2009-07-24 07:05:09 51°16.204 2°53.259 9.6 254 15.4 101060 84
2009-07-24 07:05:14 51°16.218 2°53.245 8.1 307 15.4 101060 84
2009-07-24 07:05:19 51°16.232 2°53.231 8.9 251 15.4 101070 83
2009-07-24 07:05:24 51°16.246 2°53.217 8.3 302 15.4 101070 83
2009-07-24 07:05:29 51°16.26 2°53.203 7.8 252 15.4 101070 85
2009-07-24 07:05:34 51°16.274 2°53.189 8.2 303 15.4 101070 85
2009-07-24 07:05:39 51°16.288 2°53.175 9.2 255 15.4 101070 83
2009-07-24 07:05:44 51°16.302 2°53.162 8.7 304 15.4 101070 83
2009-07-24 07:05:49 51°16.315 2°53.147 7.8 254 15.4 101070 84
2009-07-24 07:05:54 51°16.329 2°53.134 7.8 309 15.4 101070 84
2009-07-24 07:05:59 51°16.343 2°53.12 8.7 252 15.4 101080 84
2009-07-24 07:06:04 51°16.357 2°53.106 8.2 307 15.4 101080 84
2009-07-24 07:06:09 51°16.371 2°53.093 7.2 250 15.4 101070 84
2009-07-24 07:06:14 51°16.385 2°53.079 8.1 307 15.4 101070 84
2009-07-24 07:06:19 51°16.399 2°53.066 7.4 249 15.4 101070 81
2009-07-24 07:06:24 51°16.413 2°53.052 9.9 307 15.4 101070 81
2009-07-24 07:06:29 51°16.427 2°53.038 7 251 15.5 101070 82
2009-07-24 07:06:34 51°16.441 2°53.025 8.5 304 15.5 101070 82
2009-07-24 07:06:39 51°16.455 2°53.011 9.7 254 15.4 101060 83
2009-07-24 07:06:44 51°16.469 2°52.998 8.4 308 15.4 101060 83
2009-07-24 07:06:49 51°16.483 2°52.984 9.3 253 15.5 101070 81
2009-07-24 07:06:54 51°16.497 2°52.97 9.2 306 15.5 101070 81
2009-07-24 07:06:59 51°16.511 2°52.957 8.7 251 15.5 101070 83
2009-07-24 07:07:04 51°16.525 2°52.943 9.3 302 15.5 101070 83
2009-07-24 07:07:09 51°16.539 2°52.93 10.7 252 15.5 101070 82
2009-07-24 07:07:14 51°16.553 2°52.916 10.4 310 15.5 101070 82
2009-07-24 07:07:19 51°16.566 2°52.902 7.2 251 15.5 101070 82
2009-07-24 07:07:24 51°16.58 2°52.889 9.1 303 15.5 101070 82
2009-07-24 07:07:29 51°16.594 2°52.874 8 248 15.5 101060 80
2009-07-24 07:07:34 51°16.608 2°52.86 9.2 303 15.5 101060 80
2009-07-24 07:07:39 51°16.622 2°52.846 9.4 249 15.5 101060 82
2009-07-24 07:07:44 51°16.635 2°52.833 9.7 304 15.5 101060 82
2009-07-24 07:07:49 51°16.649 2°52.819 9.9 249 15.5 101070 80
2009-07-24 07:07:54 51°16.663 2°52.806 7.9 307 15.5 101070 80
2009-07-24 07:07:59 51°16.677 2°52.793 9.9 250 15.5 101070 81
2009-07-24 07:08:04 51°16.691 2°52.779 8.3 308 15.5 101070 81
2009-07-24 07:08:09 51°16.705 2°52.766 10.2 255 15.6 101070 83
2009-07-24 07:08:14 51°16.719 2°52.752 10.3 305 15.6 101070 83
2009-07-24 07:08:19 51°16.733 2°52.739 9.6 247 15.5 101060 82
2009-07-24 07:08:24 51°16.746 2°52.726 10 305 15.5 101060 82
2009-07-24 07:08:29 51°16.761 2°52.714 8.4 251 15.6 101070 82
2009-07-24 07:08:34 51°16.775 2°52.701 9.4 306 15.6 101070 82
2009-07-24 07:08:39 51°16.789 2°52.689 7.6 251 15.6 101070 84
2009-07-24 07:08:44 51°16.803 2°52.677 9.6 302 15.6 101070 84
2009-07-24 07:08:49 51°16.817 2°52.665 9.9 250 15.6 101070 83
2009-07-24 07:08:54 51°16.831 2°52.653 7.9 303 15.6 101070 83
2009-07-24 07:08:59 51°16.845 2°52.64 8.4 251 15.6 101070 82
2009-07-24 07:09:04 51°16.859 2°52.628 9.2 307 15.6 101070 82
2009-07-24 07:09:09 51°16.873 2°52.617 10.6 252 15.6 101070 83
2009-07-24 07:09:14 51°16.887 2°52.604 8.1 308 15.6 101070 83
2009-07-24 07:09:19 51°16.901 2°52.592 8.4 251 15.6 101070 83
2009-07-24 07:09:24 51°16.916 2°52.58 7.8 279 15.6 101070 83
2009-07-24 07:09:29 51°16.93 2°52.569 7.5 248 15.6 101070 82
2009-07-24 07:09:34 51°16.944 2°52.557 9.9 302 15.6 101070 82
2009-07-24 07:09:39 51°16.958 2°52.546 10.3 253 15.6 101070 80
2009-07-24 07:09:44 51°16.972 2°52.534 8.9 308 15.6 101070 80
2009-07-24 07:09:49 51°16.987 2°52.523 9 251 15.7 101070 81
2009-07-24 07:09:54 51°17.001 2°52.511 10.2 306 15.7 101070 81
2009-07-24 07:09:59 51°17.015 2°52.499 9.2 254 15.7 101060 82
2009-07-24 07:10:04 51°17.029 2°52.487 8.9 308 15.7 101060 82
2009-07-24 07:10:09 51°17.043 2°52.475 10.2 251 15.7 101070 80
2009-07-24 07:10:14 51°17.057 2°52.463 8.5 305 15.7 101070 80
2009-07-24 07:10:19 51°17.071 2°52.451 8.5 252 15.7 101070 82
2009-07-24 07:10:24 51°17.085 2°52.44 9.3 309 15.7 101070 82
2009-07-24 07:10:29 51°17.099 2°52.427 9.8 255 15.7 101060 82
2009-07-24 07:10:34 51°17.113 2°52.415 9 303 15.7 101060 82
2009-07-24 07:10:39 51°17.128 2°52.403 11.3 256 15.7 101070 83
2009-07-24 07:10:44 51°17.142 2°52.39 10.4 302 15.7 101070 83
2009-07-24 07:10:49 51°17.156 2°52.378 8.4 252 15.7 101070 83
2009-07-24 07:10:54 51°17.17 2°52.365 8.3 305 15.7 101070 83
2009-07-24 07:10:59 51°17.184 2°52.353 10.9 256 15.7 101070 83
2009-07-24 07:11:04 51°17.198 2°52.34 7.5 304 15.7 101070 83
2009-07-24 07:11:09 51°17.212 2°52.328 9.3 254 15.7 101070 83
2009-07-24 07:11:14 51°17.226 2°52.316 9.1 304 15.7 101070 83
2009-07-24 07:11:19 51°17.241 2°52.304 12.2 255 15.7 101060 82
2009-07-24 07:11:24 51°17.255 2°52.293 8.9 307 15.7 101060 82
2009-07-24 07:11:29 51°17.27 2°52.283 9.4 255 15.7 101060 83
2009-07-24 07:11:34 51°17.284 2°52.274 7.5 307 15.7 101060 83
2009-07-24 07:11:39 51°17.299 2°52.266 8.7 255 15.7 101070 83
2009-07-24 07:11:44 51°17.315 2°52.259 9 309 15.7 101070 83
2009-07-24 07:11:49 51°17.33 2°52.253 9 256 15.7 101070 81
2009-07-24 07:11:54 51°17.345 2°52.248 6.9 308 15.7 101070 81
2009-07-24 07:11:59 51°17.361 2°52.244 8.3 261 15.7 101070 81
2009-07-24 07:12:04 51°17.376 2°52.239 7.5 303 15.7 101070 81
2009-07-24 07:12:09 51°17.391 2°52.236 6.2 263 15.7 101070 80
2009-07-24 07:12:14 51°17.407 2°52.233 4.9 309 15.7 101070 80
2009-07-24 07:12:19 51°17.422 2°52.23 4.4 264 15.8 101070 81
2009-07-24 07:12:24 51°17.438 2°52.229 6.6 304 15.8 101070 81
2009-07-24 07:12:29 51°17.453 2°52.226 6.2 263 15.8 101080 82
2009-07-24 07:12:34 51°17.469 2°52.224 5.9 303 15.8 101080 82
2009-07-24 07:12:39 51°17.484 2°52.224 6.1 264 15.7 101080 81
2009-07-24 07:12:44 51°17.5 2°52.222 5.1 307 15.7 101080 81
2009-07-24 07:12:49 51°17.516 2°52.221 4.7 264 15.7 101070 80
2009-07-24 07:12:54 51°17.531 2°52.221 4.9 302 15.7 101070 80
2009-07-24 07:12:59 51°17.547 2°52.22 5.3 266 15.7 101070 80
2009-07-24 07:13:04 51°17.562 2°52.219 5.9 301 15.7 101070 80
2009-07-24 07:13:09 51°17.578 2°52.218 4.6 264 15.7 101080 81
2009-07-24 07:13:14 51°17.593 2°52.218 5.2 302 15.7 101080 81
2009-07-24 07:13:19 51°17.609 2°52.217 5.9 267 15.6 101080 81
2009-07-24 07:13:24 51°17.625 2°52.217 4.6 304 15.6 101080 81
2009-07-24 07:13:29 51°17.64 2°52.217 5.3 268 15.6 101070 81
2009-07-24 07:13:34 51°17.656 2°52.217 4.5 306 15.6 101070 81
2009-07-24 07:13:39 51°17.671 2°52.216 4 263 15.6 101080 80
2009-07-24 07:13:44 51°17.687 2°52.215 4.9 302 15.6 101080 80
2009-07-24 07:13:49 51°17.702 2°52.216 4.8 260 15.6 101080 80
2009-07-24 07:13:54 51°17.718 2°52.214 5.5 308 15.6 101080 80
2009-07-24 07:13:59 51°17.733 2°52.214 5.2 265 15.6 101070 80
2009-07-24 07:14:04 51°17.748 2°52.213 5.5 303 15.6 101070 80
2009-07-24 07:14:09 51°17.764 2°52.212 4.9 266 15.6 101080 81
2009-07-24 07:14:14 51°17.779 2°52.211 4.8 309 15.6 101080 81
2009-07-24 07:14:19 51°17.795 2°52.21 5.3 261 15.6 101070 81
2009-07-24 07:14:24 51°17.81 2°52.209 5.6 304 15.6 101070 81
2009-07-24 07:14:29 51°17.826 2°52.207 6.2 260 15.6 101080 82
2009-07-24 07:14:34 51°17.841 2°52.205 8 309 15.6 101080 82
2009-07-24 07:14:39 51°17.857 2°52.203 6 262 15.6 101070 81
2009-07-24 07:14:44 51°17.872 2°52.2 6.6 304 15.6 101070 81
2009-07-24 07:14:49 51°17.887 2°52.197 7.8 261 15.6 101070 81
2009-07-24 07:14:54 51°17.903 2°52.193 7.5 306 15.6 101070 81
2009-07-24 07:14:59 51°17.919 2°52.19 5.9 262 15.6 101070 80
2009-07-24 07:15:04 51°17.934 2°52.187 5.4 304 15.6 101070 80
2009-07-24 07:15:09 51°17.949 2°52.182 7 262 15.6 101070 82
2009-07-24 07:15:14 51°17.965 2°52.178 4.8 308 15.6 101070 82
2009-07-24 07:15:19 51°17.98 2°52.174 6.6 259 15.6 101070 81
2009-07-24 07:15:24 51°17.996 2°52.169 5.5 309 15.6 101070 81
2009-07-24 07:15:29 51°18.011 2°52.166 5.8 257 15.6 101070 80
2009-07-24 07:15:34 51°18.027 2°52.162 9.4 310 15.6 101070 80
2009-07-24 07:15:39 51°18.042 2°52.158 6.8 259 15.6 101070 81
2009-07-24 07:15:44 51°18.057 2°52.154 8.1 302 15.6 101070 81
2009-07-24 07:15:49 51°18.073 2°52.15 7.9 261 15.6 101060 81
2009-07-24 07:15:54 51°18.089 2°52.147 10.2 304 15.6 101060 81
2009-07-24 07:15:59 51°18.104 2°52.143 9.1 259 15.7 101070 82
2009-07-24 07:16:04 51°18.12 2°52.14 7.7 309 15.7 101070 82
2009-07-24 07:16:09 51°18.135 2°52.137 5.5 261 15.6 101070 80
2009-07-24 07:16:14 51°18.151 2°52.133 7 305 15.6 101070 80
2009-07-24 07:16:19 51°18.166 2°52.129 8.4 258 15.7 101060 80
2009-07-24 07:16:24 51°18.182 2°52.125 6.8 305 15.7 101060 80
2009-07-24 07:16:29 51°18.197 2°52.123 6.2 262 15.6 101060 80
2009-07-24 07:16:34 51°18.213 2°52.119 5.8 306 15.6 101060 80
2009-07-24 07:16:39 51°18.229 2°52.116 5.5 264 15.6 101060 79
2009-07-24 07:16:44 51°18.244 2°52.113 5.6 305 15.6 101060 79
2009-07-24 07:16:49 51°18.26 2°52.11 7.2 262 15.6 101060 79
2009-07-24 07:16:54 51°18.276 2°52.107 4.7 306 15.6 101060 79
2009-07-24 07:16:59 51°18.291 2°52.105 4.6 262 15.6 101070 79
2009-07-24 07:17:04 51°18.307 2°52.101 5.5 306 15.6 101070 79
2009-07-24 07:17:09 51°18.322 2°52.098 5.2 266 15.6 101070 81
2009-07-24 07:17:14 51°18.338 2°52.094 4.6 307 15.6 101070 81
2009-07-24 07:17:19 51°18.353 2°52.09 4.6 264 15.6 101070 79
2009-07-24 07:17:24 51°18.369 2°52.088 5.4 303 15.6 101070 79
2009-07-24 07:17:29 51°18.385 2°52.084 5.9 261 15.6 101070 80
2009-07-24 07:17:34 51°18.4 2°52.08 5.2 302 15.6 101070 80
2009-07-24 07:17:39 51°18.416 2°52.077 5.9 260 15.6 101070 78
2009-07-24 07:17:44 51°18.431 2°52.074 6.9 303 15.6 101070 78
2009-07-24 07:17:49 51°18.447 2°52.07 7 259 15.6 101070 80
2009-07-24 07:17:54 51°18.463 2°52.067 7 308 15.6 101070 80
2009-07-24 07:17:59 51°18.478 2°52.063 7 261 15.7 101060 82
2009-07-24 07:18:04 51°18.494 2°52.059 6.6 309 15.7 101060 82
2009-07-24 07:18:09 51°18.51 2°52.055 5 264 15.7 101070 81
2009-07-24 07:18:14 51°18.525 2°52.051 4.9 303 15.7 101070 81
2009-07-24 07:18:19 51°18.541 2°52.048 5.8 261 15.7 101070 80
2009-07-24 07:18:24 51°18.557 2°52.044 3.8 302 15.7 101070 80
2009-07-24 07:18:29 51°18.572 2°52.041 5.7 260 15.7 101070 81
2009-07-24 07:18:34 51°18.588 2°52.038 5.9 303 15.7 101070 81
2009-07-24 07:18:39 51°18.603 2°52.033 7.1 263 15.7 101070 80
2009-07-24 07:18:44 51°18.619 2°52.03 5.7 310 15.7 101070 80
2009-07-24 07:18:49 51°18.635 2°52.026 4.5 263 15.7 101080 81
2009-07-24 07:18:54 51°18.65 2°52.023 6.4 308 15.7 101080 81
2009-07-24 07:18:59 51°18.666 2°52.018 5.1 265 15.7 101080 81
2009-07-24 07:19:04 51°18.681 2°52.014 4.9 307 15.7 101080 81
2009-07-24 07:19:09 51°18.697 2°52.01 4.9 262 15.7 101070 82
2009-07-24 07:19:14 51°18.713 2°52.006 7.2 308 15.7 101070 82
2009-07-24 07:19:19 51°18.728 2°52.002 8 261 15.7 101080 81
2009-07-24 07:19:24 51°18.744 2°51.998 6.2 309 15.7 101080 81
2009-07-24 07:19:29 51°18.759 2°51.995 5.2 267 15.7 101070 80
2009-07-24 07:19:34 51°18.775 2°51.991 3.5 303 15.7 101070 80
2009-07-24 07:19:39 51°18.791 2°51.987 5.9 262 15.7 101080 82
2009-07-24 07:19:44 51°18.806 2°51.984 4.6 302 15.7 101080 82
2009-07-24 07:19:49 51°18.822 2°51.981 4.9 263 15.7 101070 81
2009-07-24 07:19:54 51°18.837 2°51.978 5.4 301 15.7 101070 81
2009-07-24 07:19:59 51°18.853 2°51.975 6.1 263 15.7 101070 81
2009-07-24 07:20:04 51°18.869 2°51.972 4.2 303 15.7 101070 81
2009-07-24 07:20:09 51°18.884 2°51.969 5.7 256 15.7 101070 81
2009-07-24 07:20:14 51°18.9 2°51.965 4.3 301 15.7 101070 81
2009-07-24 07:20:19 51°18.915 2°51.963 7.7 256 15.7 101070 82
2009-07-24 07:20:24 51°18.931 2°51.959 7.9 305 15.7 101070 82
2009-07-24 07:20:29 51°18.946 2°51.956 7.7 260 15.8 101070 79
2009-07-24 07:20:34 51°18.962 2°51.954 6 302 15.8 101070 79
2009-07-24 07:20:39 51°18.977 2°51.951 6.6 257 15.8 101070 82
2009-07-24 07:20:44 51°18.993 2°51.948 6.1 303 15.8 101070 82
2009-07-24 07:20:49 51°19.008 2°51.945 4.7 265 15.8 101060 80
2009-07-24 07:20:54 51°19.024 2°51.944 7.7 309 15.8 101060 80
2009-07-24 07:20:59 51°19.04 2°51.94 5.9 263 15.8 101070 79
2009-07-24 07:21:04 51°19.055 2°51.939 4.8 307 15.8 101070 79
2009-07-24 07:21:09 51°19.071 2°51.935 5.3 265 15.8 101070 80
2009-07-24 07:21:14 51°19.086 2°51.933 4.9 303 15.8 101070 80
2009-07-24 07:21:19 51°19.102 2°51.93 3.9 263 15.7 101070 79
2009-07-24 07:21:24 51°19.117 2°51.929 6.1 285 15.7 101070 79
2009-07-24 07:21:29 51°19.133 2°51.926 5.5 264 15.7 101070 79
2009-07-24 07:21:34 51°19.149 2°51.924 6.4 302 15.7 101070 79
2009-07-24 07:21:39 51°19.164 2°51.92 5.5 269 15.7 101070 79
2009-07-24 07:21:44 51°19.18 2°51.918 5 309 15.7 101070 79
2009-07-24 07:21:49 51°19.195 2°51.915 5.2 269 15.7 101080 79
2009-07-24 07:21:54 51°19.211 2°51.912 5.5 309 15.7 101080 79
2009-07-24 07:21:59 51°19.227 2°51.908 4.6 267 15.7 101070 80
2009-07-24 07:22:04 51°19.242 2°51.905 4.8 309 15.7 101070 80
2009-07-24 07:22:09 51°19.258 2°51.902 5.6 268 15.7 101070 78
2009-07-24 07:22:14 51°19.274 2°51.899 4.3 308 15.7 101070 78
2009-07-24 07:22:19 51°19.289 2°51.896 5.1 260 15.7 101070 81
2009-07-24 07:22:24 51°19.305 2°51.893 6.8 304 15.7 101070 81
2009-07-24 07:22:29 51°19.32 2°51.89 4.7 266 15.7 101080 81
2009-07-24 07:22:34 51°19.336 2°51.887 5.2 302 15.7 101080 81
2009-07-24 07:22:39 51°19.352 2°51.884 3.9 263 15.7 101080 81
2009-07-24 07:22:44 51°19.368 2°51.881 3.5 306 15.7 101080 81
2009-07-24 07:22:49 51°19.383 2°51.878 4 264 15.7 101080 81
2009-07-24 07:22:54 51°19.399 2°51.875 4.6 302 15.7 101080 81
2009-07-24 07:22:59 51°19.414 2°51.871 4.6 261 15.7 101080 80
2009-07-24 07:23:04 51°19.43 2°51.867 3.5 303 15.7 101080 80
2009-07-24 07:23:09 51°19.446 2°51.865 4.7 267 15.7 101070 80
2009-07-24 07:23:14 51°19.461 2°51.861 4.8 305 15.7 101070 80
2009-07-24 07:23:19 51°19.477 2°51.858 5.1 262 15.7 101070 80
2009-07-24 07:23:24 51°19.492 2°51.855 7.2 306 15.7 101070 80
2009-07-24 07:23:29 51°19.508 2°51.851 5 265 15.7 101070 80
2009-07-24 07:23:34 51°19.524 2°51.849 4.5 301 15.7 101070 80
2009-07-24 07:23:39 51°19.539 2°51.846 3.9 265 15.8 101070 80
2009-07-24 07:23:44 51°19.555 2°51.844 4.9 308 15.8 101070 80
2009-07-24 07:23:49 51°19.57 2°51.84 5.8 266 15.8 101070 81
2009-07-24 07:23:54 51°19.586 2°51.838 4.7 308 15.8 101070 81
2009-07-24 07:23:59 51°19.601 2°51.834 4.6 266 15.8 101080 81
2009-07-24 07:24:04 51°19.617 2°51.832 5 305 15.8 101080 81
2009-07-24 07:24:09 51°19.632 2°51.829 4.1 261 15.7 101070 79
2009-07-24 07:24:14 51°19.648 2°51.826 3.6 303 15.7 101070 79
2009-07-24 07:24:19 51°19.664 2°51.823 6.1 261 15.7 101070 79
2009-07-24 07:24:24 51°19.679 2°51.819 4.1 301 15.7 101070 79
2009-07-24 07:24:29 51°19.695 2°51.816 5.1 265 15.7 101070 81
2009-07-24 07:24:34 51°19.71 2°51.813 7.3 308 15.7 101070 81
2009-07-24 07:24:39 51°19.726 2°51.81 7.4 259 15.7 101080 81
2009-07-24 07:24:44 51°19.741 2°51.807 6.9 302 15.7 101080 81
2009-07-24 07:24:49 51°19.757 2°51.804 8.7 260 15.7 101070 81
2009-07-24 07:24:54 51°19.773 2°51.8 5.9 308 15.7 101070 81
2009-07-24 07:24:59 51°19.788 2°51.797 5.9 264 15.8 101070 82
2009-07-24 07:25:04 51°19.804 2°51.794 5.6 308 15.8 101070 82
2009-07-24 07:25:09 51°19.819 2°51.791 5.7 263 15.8 101070 81
2009-07-24 07:25:14 51°19.835 2°51.788 5.3 303 15.8 101070 81
2009-07-24 07:25:19 51°19.85 2°51.785 5.4 264 15.8 101070 81
2009-07-24 07:25:24 51°19.866 2°51.783 5.1 302 15.8 101070 81
2009-07-24 07:25:29 51°19.882 2°51.779 5.2 264 15.7 101070 79
2009-07-24 07:25:34 51°19.897 2°51.777 6 308 15.7 101070 79
2009-07-24 07:25:39 51°19.913 2°51.774 5.7 261 15.7 101060 79
2009-07-24 07:25:44 51°19.928 2°51.771 6.9 310 15.7 101060 79
2009-07-24 07:25:49 51°19.944 2°51.768 6.3 254 15.7 101060 79
2009-07-24 07:25:54 51°19.959 2°51.766 7.8 306 15.7 101060 79
2009-07-24 07:25:59 51°19.975 2°51.762 5.9 263 15.7 101080 80
2009-07-24 07:26:04 51°19.99 2°51.759 5.7 303 15.7 101080 80
2009-07-24 07:26:09 51°20.006 2°51.756 5.5 259 15.7 101060 80
2009-07-24 07:26:14 51°20.021 2°51.752 7 304 15.7 101060 80
2009-07-24 07:26:19 51°20.037 2°51.749 8.6 260 15.7 101060 80
2009-07-24 07:26:24 51°20.052 2°51.746 5.5 279 15.7 101060 80
2009-07-24 07:26:29 51°20.068 2°51.742 6.2 263 15.7 101070 80
2009-07-24 07:26:34 51°20.083 2°51.738 4.8 306 15.7 101070 80
2009-07-24 07:26:39 51°20.099 2°51.735 5.2 264 15.8 101070 81
2009-07-24 07:26:44 51°20.114 2°51.732 5.8 302 15.8 101070 81
2009-07-24 07:26:49 51°20.13 2°51.729 6.5 262 15.8 101060 81
2009-07-24 07:26:54 51°20.145 2°51.725 6.9 306 15.8 101060 81
2009-07-24 07:26:59 51°20.161 2°51.721 5.9 266 15.8 101070 82
2009-07-24 07:27:04 51°20.176 2°51.718 5.5 307 15.8 101070 82
2009-07-24 07:27:09 51°20.192 2°51.714 5.6 270 15.8 101080 82
2009-07-24 07:27:14 51°20.208 2°51.71 5.6 309 15.8 101080 82
2009-07-24 07:27:19 51°20.223 2°51.706 4.7 265 15.8 101080 80
2009-07-24 07:27:24 51°20.239 2°51.701 6.8 306 15.8 101080 80
2009-07-24 07:27:29 51°20.255 2°51.698 6.2 264 15.8 101080 79
2009-07-24 07:27:34 51°20.27 2°51.694 4.6 305 15.8 101080 79
2009-07-24 07:27:39 51°20.286 2°51.69 6.6 266 15.8 101070 80
2009-07-24 07:27:44 51°20.302 2°51.687 4.6 302 15.8 101070 80
2009-07-24 07:27:49 51°20.317 2°51.683 4.6 267 15.8 101070 80
2009-07-24 07:27:54 51°20.333 2°51.68 5.8 303 15.8 101070 80
2009-07-24 07:27:59 51°20.349 2°51.677 4.7 265 15.8 101070 81
2009-07-24 07:28:04 51°20.364 2°51.674 5.8 301 15.8 101070 81
2009-07-24 07:28:09 51°20.38 2°51.671 6.6 262 15.8 101090 80
2009-07-24 07:28:14 51°20.396 2°51.668 4.8 302 15.8 101090 80
2009-07-24 07:28:19 51°20.411 2°51.665 6.4 267 15.9 101080 81
2009-07-24 07:28:24 51°20.427 2°51.662 4.9 306 15.9 101080 81
2009-07-24 07:28:29 51°20.443 2°51.659 5.3 268 15.8 101070 81
2009-07-24 07:28:34 51°20.458 2°51.656 5.8 301 15.8 101070 81
2009-07-24 07:28:39 51°20.474 2°51.653 6.4 259 15.8 101080 82
2009-07-24 07:28:44 51°20.49 2°51.649 4.5 301 15.8 101080 82
2009-07-24 07:28:49 51°20.506 2°51.646 5.8 261 15.9 101070 81
2009-07-24 07:28:54 51°20.521 2°51.642 5.9 305 15.9 101070 81
2009-07-24 07:28:59 51°20.537 2°51.639 4.4 264 15.9 101070 82
2009-07-24 07:29:04 51°20.553 2°51.637 6.3 310 15.9 101070 82
2009-07-24 07:29:09 51°20.568 2°51.633 7 261 15.9 101080 82
2009-07-24 07:29:14 51°20.584 2°51.63 6.7 307 15.9 101080 82
2009-07-24 07:29:19 51°20.6 2°51.626 5.5 263 15.9 101070 80
2009-07-24 07:29:24 51°20.616 2°51.623 5.1 307 15.9 101070 80
2009-07-24 07:29:29 51°20.631 2°51.62 4.2 261 15.9 101070 80
2009-07-24 07:29:34 51°20.647 2°51.617 6.8 302 15.9 101070 80
2009-07-24 07:29:39 51°20.663 2°51.614 5 263 15.9 101080 80
2009-07-24 07:29:44 51°20.679 2°51.61 6.4 302 15.9 101080 80
2009-07-24 07:29:49 51°20.694 2°51.607 4.8 264 15.9 101070 81
2009-07-24 07:29:54 51°20.71 2°51.604 5.7 303 15.9 101070 81
2009-07-24 07:29:59 51°20.726 2°51.6 5.8 261 15.9 101080 81
2009-07-24 07:30:04 51°20.742 2°51.597 5 310 15.9 101080 81
2009-07-24 07:30:09 51°20.757 2°51.594 5 265 15.9 101070 81
2009-07-24 07:30:14 51°20.773 2°51.591 5.7 303 15.9 101070 81
2009-07-24 07:30:19 51°20.788 2°51.589 5.2 267 15.9 101070 81
2009-07-24 07:30:24 51°20.804 2°51.587 5.3 285 15.9 101070 81
2009-07-24 07:30:29 51°20.82 2°51.583 6.4 259 15.9 101080 82
2009-07-24 07:30:34 51°20.836 2°51.581 7.1 304 15.9 101080 82
2009-07-24 07:30:39 51°20.852 2°51.578 7.3 267 16 101080 81
2009-07-24 07:30:44 51°20.868 2°51.575 6.3 301 16 101080 81
2009-07-24 07:30:49 51°20.884 2°51.573 6.4 268 16 101070 81
2009-07-24 07:30:54 51°20.9 2°51.57 6.8 302 16 101070 81
2009-07-24 07:30:59 51°20.915 2°51.567 5.4 260 15.9 101080 81
2009-07-24 07:31:04 51°20.931 2°51.564 5.3 309 15.9 101080 81
2009-07-24 07:31:09 51°20.947 2°51.562 5.6 267 15.9 101080 78
2009-07-24 07:31:14 51°20.963 2°51.559 4.7 308 15.9 101080 78
2009-07-24 07:31:19 51°20.978 2°51.556 4.5 265 15.9 101080 79
2009-07-24 07:31:24 51°20.993 2°51.555 5.9 308 15.9 101080 79
2009-07-24 07:31:29 51°21.009 2°51.551 4.6 265 15.9 101080 79
2009-07-24 07:31:34 51°21.025 2°51.549 6.3 302 15.9 101080 79
2009-07-24 07:31:39 51°21.04 2°51.546 5.5 264 15.9 101060 79
2009-07-24 07:31:44 51°21.056 2°51.543 5.4 304 15.9 101060 79
2009-07-24 07:31:49 51°21.072 2°51.54 8.5 258 15.9 101070 80
2009-07-24 07:31:54 51°21.088 2°51.537 6.3 305 15.9 101070 80
2009-07-24 07:31:59 51°21.103 2°51.534 10.8 261 15.9 101080 80
2009-07-24 07:32:04 51°21.119 2°51.531 9.2 308 15.9 101080 80
2009-07-24 07:32:09 51°21.135 2°51.529 6.8 264 15.9 101070 80
2009-07-24 07:32:14 51°21.15 2°51.525 7.5 311 15.9 101070 80
2009-07-24 07:32:19 51°21.166 2°51.524 6.7 267 15.9 101070 80
2009-07-24 07:32:24 51°21.182 2°51.52 6.7 279 15.9 101070 80
2009-07-24 07:32:29 51°21.197 2°51.518 5.1 263 15.9 101080 80
2009-07-24 07:32:34 51°21.213 2°51.515 7.3 307 15.9 101080 80
2009-07-24 07:32:39 51°21.228 2°51.512 7.2 260 15.9 101060 79
2009-07-24 07:32:44 51°21.244 2°51.509 8.3 306 15.9 101060 79
2009-07-24 07:32:49 51°21.26 2°51.506 5.1 263 15.9 101070 80
2009-07-24 07:32:54 51°21.276 2°51.504 5 310 15.9 101070 80
2009-07-24 07:32:59 51°21.291 2°51.501 7.2 262 15.9 101070 79
2009-07-24 07:33:04 51°21.307 2°51.498 7.1 301 15.9 101070 79
2009-07-24 07:33:09 51°21.323 2°51.497 5.8 264 15.9 101080 79
2009-07-24 07:33:14 51°21.338 2°51.494 6.5 303 15.9 101080 79
2009-07-24 07:33:19 51°21.354 2°51.491 7.7 264 15.9 101070 79
2009-07-24 07:33:24 51°21.369 2°51.489 8.9 304 15.9 101070 79
2009-07-24 07:33:29 51°21.385 2°51.485 8.4 261 15.9 101070 81
2009-07-24 07:33:34 51°21.401 2°51.482 7.2 308 15.9 101070 81
2009-07-24 07:33:39 51°21.417 2°51.478 6.5 265 15.9 101070 77
2009-07-24 07:33:44 51°21.432 2°51.475 6.5 310 15.9 101070 77
2009-07-24 07:33:49 51°21.448 2°51.471 4.3 262 15.9 101070 80
2009-07-24 07:33:54 51°21.464 2°51.469 9.3 307 15.9 101070 80
2009-07-24 07:33:59 51°21.479 2°51.465 5.8 263 15.9 101070 80
2009-07-24 07:34:04 51°21.495 2°51.463 8.6 308 15.9 101070 80
2009-07-24 07:34:09 51°21.511 2°51.459 7 258 15.9 101070 80
2009-07-24 07:34:14 51°21.526 2°51.456 8.8 305 15.9 101070 80
2009-07-24 07:34:19 51°21.542 2°51.453 6 264 15.9 101080 80
2009-07-24 07:34:24 51°21.557 2°51.45 7 281 15.9 101080 80
2009-07-24 07:34:29 51°21.573 2°51.448 6.9 263 16 101070 80
2009-07-24 07:34:34 51°21.589 2°51.444 5.8 308 16 101070 80
2009-07-24 07:34:39 51°21.604 2°51.442 4.7 262 16 101070 81
2009-07-24 07:34:44 51°21.62 2°51.438 7.9 304 16 101070 81
2009-07-24 07:34:49 51°21.635 2°51.435 6.3 262 16 101070 79
2009-07-24 07:34:54 51°21.651 2°51.432 5.5 304 16 101070 79
2009-07-24 07:34:59 51°21.666 2°51.429 7.5 260 16 101070 80
2009-07-24 07:35:04 51°21.682 2°51.427 7.7 308 16 101070 80
2009-07-24 07:35:09 51°21.697 2°51.423 8.1 261 16 101070 79
2009-07-24 07:35:14 51°21.713 2°51.42 7.5 307 16 101070 79
2009-07-24 07:35:19 51°21.728 2°51.418 5 264 16 101080 78
2009-07-24 07:35:24 51°21.744 2°51.415 5.7 302 16 101080 78
2009-07-24 07:35:29 51°21.759 2°51.413 7 261 16 101090 80
2009-07-24 07:35:34 51°21.774 2°51.409 8.2 304 16 101090 80
2009-07-24 07:35:39 51°21.79 2°51.407 7.5 260 16 101070 79
2009-07-24 07:35:44 51°21.805 2°51.404 8.6 303 16 101070 79
2009-07-24 07:35:49 51°21.821 2°51.401 6.1 262 16 101080 78
2009-07-24 07:35:54 51°21.836 2°51.399 10.4 301 16 101080 78
2009-07-24 07:35:59 51°21.852 2°51.396 5.3 264 16 101070 78
2009-07-24 07:36:04 51°21.867 2°51.394 8.1 302 16 101070 78
2009-07-24 07:36:09 51°21.883 2°51.392 8.3 260 16.1 101070 77
2009-07-24 07:36:14 51°21.899 2°51.388 6.2 304 16.1 101070 77
2009-07-24 07:36:19 51°21.914 2°51.386 7.9 266 16 101080 79
2009-07-24 07:36:24 51°21.93 2°51.384 6.4 279 16 101080 79
2009-07-24 07:36:29 51°21.945 2°51.38 6 267 16.1 101070 77
2009-07-24 07:36:34 51°21.961 2°51.378 7.7 304 16.1 101070 77
2009-07-24 07:36:39 51°21.976 2°51.375 6 265 16 101070 78
2009-07-24 07:36:44 51°21.992 2°51.373 6.8 302 16 101070 78
2009-07-24 07:36:49 51°22.008 2°51.37 6.6 269 16 101060 76
2009-07-24 07:36:54 51°22.023 2°51.368 5.9 305 16 101060 76
2009-07-24 07:36:59 51°22.039 2°51.366 4.8 262 16 101070 74
2009-07-24 07:37:04 51°22.054 2°51.363 5.2 304 16 101070 74
2009-07-24 07:37:09 51°22.07 2°51.362 6.8 269 16 101080 77
2009-07-24 07:37:14 51°22.085 2°51.36 6.4 309 16 101080 77
2009-07-24 07:37:19 51°22.101 2°51.357 8 257 16 101080 78
2009-07-24 07:37:24 51°22.116 2°51.354 5.1 302 16 101080 78
2009-07-24 07:37:29 51°22.132 2°51.353 4.5 262 16 101080 77
2009-07-24 07:37:34 51°22.147 2°51.351 7.4 303 16 101080 77
2009-07-24 07:37:39 51°22.163 2°51.348 4.1 262 16 101090 78
2009-07-24 07:37:44 51°22.178 2°51.346 7.1 306 16 101090 78
2009-07-24 07:37:49 51°22.194 2°51.343 8.8 257 16 101070 79
2009-07-24 07:37:54 51°22.209 2°51.341 6.6 301 16 101070 79
2009-07-24 07:37:59 51°22.225 2°51.338 7.2 265 16.1 101080 78
2009-07-24 07:38:04 51°22.24 2°51.336 7.4 306 16.1 101080 78
2009-07-24 07:38:09 51°22.256 2°51.333 5.7 265 16.1 101080 78
2009-07-24 07:38:14 51°22.271 2°51.331 7.3 302 16.1 101080 78
2009-07-24 07:38:19 51°22.287 2°51.329 7.5 260 16.1 101070 79
2009-07-24 07:38:24 51°22.302 2°51.326 6.1 279 16.1 101070 79
2009-07-24 07:38:29 51°22.318 2°51.324 6.7 260 16.1 101080 79
2009-07-24 07:38:34 51°22.333 2°51.321 6 302 16.1 101080 79
2009-07-24 07:38:39 51°22.349 2°51.318 5.4 264 16.1 101080 76
2009-07-24 07:38:44 51°22.365 2°51.315 7.4 303 16.1 101080 76
2009-07-24 07:38:49 51°22.38 2°51.314 4.9 264 16.1 101080 78
2009-07-24 07:38:54 51°22.396 2°51.311 5.7 304 16.1 101080 78
2009-07-24 07:38:59 51°22.412 2°51.308 6 260 16.1 101080 77
2009-07-24 07:39:04 51°22.427 2°51.306 5 307 16.1 101080 77
2009-07-24 07:39:09 51°22.443 2°51.303 7.7 260 16.1 101090 77
2009-07-24 07:39:14 51°22.458 2°51.3 6.8 309 16.1 101090 77
2009-07-24 07:39:19 51°22.474 2°51.298 8.6 261 16.1 101090 78
2009-07-24 07:39:24 51°22.489 2°51.295 8.2 303 16.1 101090 78
2009-07-24 07:39:29 51°22.505 2°51.293 5.4 263 16.1 101080 78
2009-07-24 07:39:34 51°22.52 2°51.291 6.1 304 16.1 101080 78
2009-07-24 07:39:39 51°22.536 2°51.288 5.5 265 16.1 101080 78
2009-07-24 07:39:44 51°22.551 2°51.286 6.9 308 16.1 101080 78
2009-07-24 07:39:49 51°22.567 2°51.283 7.5 268 16.1 101090 77
2009-07-24 07:39:54 51°22.583 2°51.281 5.4 307 16.1 101090 77
2009-07-24 07:39:59 51°22.598 2°51.278 5.7 262 16.1 101080 77
2009-07-24 07:40:04 51°22.614 2°51.275 5.6 304 16.1 101080 77
2009-07-24 07:40:09 51°22.629 2°51.271 4.6 262 16 101080 77
2009-07-24 07:40:14 51°22.644 2°51.27 6.6 307 16 101080 77
2009-07-24 07:40:19 51°22.66 2°51.265 6.8 266 16 101080 77
2009-07-24 07:40:24 51°22.675 2°51.264 6.5 284 16 101080 77
2009-07-24 07:40:29 51°22.691 2°51.261 5.9 264 16 101080 75
2009-07-24 07:40:34 51°22.706 2°51.259 5.8 302 16 101080 75
2009-07-24 07:40:39 51°22.721 2°51.256 6.5 266 16 101080 75
2009-07-24 07:40:44 51°22.737 2°51.253 6.3 60 16 101080 75
2009-07-24 07:40:49 51°22.752 2°51.252 5.9 267 16 101090 76
2009-07-24 07:40:54 51°22.767 2°51.248 6.4 52 16 101090 76
2009-07-24 07:40:59 51°22.783 2°51.247 5.5 268 16 101080 76
2009-07-24 07:41:04 51°22.798 2°51.244 5.3 305 16 101080 76
2009-07-24 07:41:09 51°22.814 2°51.242 7 263 15.9 101070 76
2009-07-24 07:41:14 51°22.829 2°51.239 5.5 302 15.9 101070 76
2009-07-24 07:41:19 51°22.845 2°51.237 6.6 268 16 101070 77
2009-07-24 07:41:24 51°22.86 2°51.235 6 61 16 101070 77
2009-07-24 07:41:29 51°22.876 2°51.232 5.4 263 16 101080 76
2009-07-24 07:41:34 51°22.891 2°51.231 5.3 302 16 101080 76
2009-07-24 07:41:39 51°22.906 2°51.228 5.3 267 16 101080 77
2009-07-24 07:41:44 51°22.922 2°51.226 5.8 306 16 101080 77
2009-07-24 07:41:49 51°22.937 2°51.224 5.9 263 16 101070 77
2009-07-24 07:41:54 51°22.953 2°51.222 6 302 16 101070 77
2009-07-24 07:41:59 51°22.968 2°51.219 4.6 265 16 101090 78
2009-07-24 07:42:04 51°22.984 2°51.217 5.5 309 16 101090 78
2009-07-24 07:42:09 51°22.999 2°51.215 6.8 259 16.1 101080 78
2009-07-24 07:42:14 51°23.015 2°51.212 6 303 16.1 101080 78
2009-07-24 07:42:19 51°23.03 2°51.21 6.5 265 16.1 101080 78
2009-07-24 07:42:24 51°23.046 2°51.208 7.1 278 16.1 101080 78
2009-07-24 07:42:29 51°23.061 2°51.207 5.5 270 16.1 101080 77
2009-07-24 07:42:34 51°23.076 2°51.204 6.3 303 16.1 101080 77
2009-07-24 07:42:39 51°23.092 2°51.203 6.1 266 16.1 101070 77
2009-07-24 07:42:44 51°23.107 2°51.201 7.1 308 16.1 101070 77
2009-07-24 07:42:49 51°23.122 2°51.198 5.9 266 16.1 101080 78
2009-07-24 07:42:54 51°23.137 2°51.197 5.4 302 16.1 101080 78
2009-07-24 07:42:59 51°23.153 2°51.195 5.6 267 16.1 101080 77
2009-07-24 07:43:04 51°23.168 2°51.193 6.3 309 16.1 101080 77
2009-07-24 07:43:09 51°23.183 2°51.191 5.4 265 16.1 101070 77
2009-07-24 07:43:14 51°23.199 2°51.189 5.1 309 16.1 101070 77
2009-07-24 07:43:19 51°23.214 2°51.187 7.4 268 16.1 101080 76
2009-07-24 07:43:24 51°23.229 2°51.185 6.3 301 16.1 101080 76
2009-07-24 07:43:29 51°23.244 2°51.184 5.7 267 16.1 101070 78
2009-07-24 07:43:34 51°23.26 2°51.181 6.3 61 16.1 101070 78
2009-07-24 07:43:39 51°23.275 2°51.18 6.7 28 16.1 101070 77
2009-07-24 07:43:44 51°23.29 2°51.178 5.1 302 16.1 101070 77
2009-07-24 07:43:49 51°23.306 2°51.177 5.4 265 16.1 101070 78
2009-07-24 07:43:54 51°23.321 2°51.174 7.2 302 16.1 101070 78
2009-07-24 07:43:59 51°23.337 2°51.173 7 270 16 101070 79
2009-07-24 07:44:04 51°23.352 2°51.17 6 305 16 101070 79
2009-07-24 07:44:09 51°23.367 2°51.169 6.5 270 16 101090 79
2009-07-24 07:44:14 51°23.382 2°51.166 6.3 304 16 101090 79
2009-07-24 07:44:19 51°23.398 2°51.164 5.1 263 16 101070 79
2009-07-24 07:44:24 51°23.413 2°51.161 5.2 286 16 101070 79
2009-07-24 07:44:29 51°23.428 2°51.159 5.1 266 16 101080 76
2009-07-24 07:44:34 51°23.444 2°51.156 4.6 309 16 101080 76
2009-07-24 07:44:39 51°23.459 2°51.154 5.6 262 16.1 101070 79
2009-07-24 07:44:44 51°23.474 2°51.152 5.3 304 16.1 101070 79
2009-07-24 07:44:49 51°23.49 2°51.15 7.8 262 16.1 101080 79
2009-07-24 07:44:54 51°23.505 2°51.148 4.8 306 16.1 101080 79
2009-07-24 07:44:59 51°23.52 2°51.147 6.1 264 16.1 101080 80
2009-07-24 07:45:04 51°23.535 2°51.143 5.3 304 16.1 101080 80
2009-07-24 07:45:09 51°23.551 2°51.142 6 266 16.1 101070 79
2009-07-24 07:45:14 51°23.566 2°51.139 5.9 303 16.1 101070 79
2009-07-24 07:45:19 51°23.582 2°51.137 6 262 16.1 101070 80
2009-07-24 07:45:24 51°23.597 2°51.134 6.2 310 16.1 101070 80
2009-07-24 07:45:29 51°23.612 2°51.132 5.5 265 16.1 101070 78
2009-07-24 07:45:34 51°23.628 2°51.13 4.8 309 16.1 101070 78
2009-07-24 07:45:39 51°23.643 2°51.128 5.5 267 16.1 101070 79
2009-07-24 07:45:44 51°23.659 2°51.126 4.2 305 16.1 101070 79
2009-07-24 07:45:49 51°23.675 2°51.123 4.3 265 16.1 101080 77
2009-07-24 07:45:54 51°23.69 2°51.12 5.6 303 16.1 101080 77
2009-07-24 07:45:59 51°23.705 2°51.117 6.3 264 16.1 101070 78
2009-07-24 07:46:04 51°23.721 2°51.116 8.2 304 16.1 101070 78
2009-07-24 07:46:09 51°23.736 2°51.113 6.3 261 16.1 101080 79
2009-07-24 07:46:14 51°23.752 2°51.11 4.8 303 16.1 101080 79
2009-07-24 07:46:19 51°23.767 2°51.108 6 265 16.1 101070 76
2009-07-24 07:46:24 51°23.783 2°51.106 6.1 285 16.1 101070 76
2009-07-24 07:46:29 51°23.798 2°51.102 7.3 267 16.2 101070 79
2009-07-24 07:46:34 51°23.814 2°51.101 8.2 304 16.2 101070 79
2009-07-24 07:46:39 51°23.829 2°51.099 7 30 16.1 101070 75
2009-07-24 07:46:44 51°23.845 2°51.096 4.3 302 16.1 101070 75
2009-07-24 07:46:49 51°23.86 2°51.095 8.2 267 16.1 101070 77
2009-07-24 07:46:54 51°23.876 2°51.092 6.3 306 16.1 101070 77
2009-07-24 07:46:59 51°23.891 2°51.09 4.9 264 16.1 101070 76
2009-07-24 07:47:04 51°23.907 2°51.087 7.4 311 16.1 101070 76
2009-07-24 07:47:09 51°23.922 2°51.085 6.3 268 16.1 101080 78
2009-07-24 07:47:14 51°23.938 2°51.082 4.1 304 16.1 101080 78
2009-07-24 07:47:19 51°23.954 2°51.081 5.6 264 16.1 101070 78
2009-07-24 07:47:24 51°23.969 2°51.078 7.1 302 16.1 101070 78
2009-07-24 07:47:29 51°23.985 2°51.076 5.7 260 16.1 101070 78
2009-07-24 07:47:34 51°24 2°51.072 8.3 302 16.1 101070 78
2009-07-24 07:47:39 51°24.016 2°51.071 8.5 267 16.1 101070 78
2009-07-24 07:47:44 51°24.031 2°51.068 8.2 304 16.1 101070 78
2009-07-24 07:47:49 51°24.047 2°51.066 8.2 270 16.1 101070 77
2009-07-24 07:47:54 51°24.062 2°51.064 7.2 307 16.1 101070 77
2009-07-24 07:47:59 51°24.078 2°51.06 6.4 12 16.1 101070 78
2009-07-24 07:48:04 51°24.093 2°51.06 6.6 300 16.1 101070 78
2009-07-24 07:48:09 51°24.108 2°51.056 5.8 263 16.1 101070 79
2009-07-24 07:48:14 51°24.123 2°51.055 7.7 308 16.1 101070 79
2009-07-24 07:48:19 51°24.138 2°51.051 5.7 266 16.1 101070 79
2009-07-24 07:48:24 51°24.154 2°51.05 6.7 284 16.1 101070 79
2009-07-24 07:48:29 51°24.169 2°51.048 5.7 265 16.1 101070 76
2009-07-24 07:48:34 51°24.184 2°51.046 5.8 303 16.1 101070 76
2009-07-24 07:48:39 51°24.2 2°51.042 5.4 261 16.1 101070 68
2009-07-24 07:48:44 51°24.215 2°51.041 7 307 16.1 101070 68
2009-07-24 07:48:49 51°24.231 2°51.039 7.2 269 16.1 101070 73
2009-07-24 07:48:54 51°24.246 2°51.036 5.8 306 16.1 101070 73
2009-07-24 07:48:59 51°24.261 2°51.034 6.9 267 16.1 101070 71
2009-07-24 07:49:04 51°24.276 2°51.032 8.5 303 16.1 101070 71
2009-07-24 07:49:09 51°24.292 2°51.03 6.8 260 16.1 101070 75
2009-07-24 07:49:14 51°24.307 2°51.028 6.8 307 16.1 101070 75
2009-07-24 07:49:19 51°24.322 2°51.025 8.1 269 16.1 101070 76
2009-07-24 07:49:24 51°24.338 2°51.023 8 308 16.1 101070 76
2009-07-24 07:49:29 51°24.353 2°51.021 7.3 28 16.1 101070 75
2009-07-24 07:49:34 51°24.368 2°51.019 6 308 16.1 101070 75
2009-07-24 07:49:39 51°24.384 2°51.016 6.9 26 16 101070 75
2009-07-24 07:49:44 51°24.399 2°51.015 5.2 310 16 101070 75
2009-07-24 07:49:49 51°24.414 2°51.012 7.7 270 16 101080 74
2009-07-24 07:49:54 51°24.429 2°51.009 7.5 302 16 101080 74
2009-07-24 07:49:59 51°24.445 2°51.008 6 268 16 101070 74
2009-07-24 07:50:04 51°24.46 2°51.005 5.2 309 16 101070 74
2009-07-24 07:50:09 51°24.475 2°51.003 6 267 16.1 101070 75
2009-07-24 07:50:14 51°24.49 2°51 4.6 311 16.1 101070 75
2009-07-24 07:50:19 51°24.506 2°50.998 6.6 261 16.1 101060 77
2009-07-24 07:50:24 51°24.521 2°50.994 6.8 283 16.1 101060 77
2009-07-24 07:50:29 51°24.536 2°50.993 6 265 16.1 101080 74
2009-07-24 07:50:34 51°24.552 2°50.99 6.7 308 16.1 101080 74
2009-07-24 07:50:39 51°24.567 2°50.988 6.5 265 16.1 101070 76
2009-07-24 07:50:44 51°24.582 2°50.985 6.1 308 16.1 101070 76
2009-07-24 07:50:49 51°24.597 2°50.983 5.3 263 16.1 101070 75
2009-07-24 07:50:54 51°24.612 2°50.981 5.9 308 16.1 101070 75
2009-07-24 07:50:59 51°24.628 2°50.979 6.8 268 16.1 101060 74
2009-07-24 07:51:04 51°24.643 2°50.976 6.4 303 16.1 101060 74
2009-07-24 07:51:09 51°24.658 2°50.975 5 263 16.1 101070 75
2009-07-24 07:51:14 51°24.674 2°50.972 4.9 306 16.1 101070 75
2009-07-24 07:51:19 51°24.689 2°50.97 7.5 262 16.1 101060 75
2009-07-24 07:51:24 51°24.704 2°50.967 5.1 303 16.1 101060 75
2009-07-24 07:51:29 51°24.72 2°50.965 6.7 262 16 101070 76
2009-07-24 07:51:34 51°24.735 2°50.962 8.5 305 16 101070 76
2009-07-24 07:51:39 51°24.75 2°50.96 7.4 264 16.1 101080 73
2009-07-24 07:51:44 51°24.765 2°50.958 8.3 302 16.1 101080 73
2009-07-24 07:51:49 51°24.78 2°50.956 6.5 261 16.1 101080 74
2009-07-24 07:51:54 51°24.796 2°50.954 5.3 308 16.1 101080 74
2009-07-24 07:51:59 51°24.811 2°50.951 7.2 261 16.2 101070 76
2009-07-24 07:52:04 51°24.826 2°50.949 7.8 304 16.2 101070 76
2009-07-24 07:52:10 51°24.844 2°50.945 6 266 16.1 101060 76
2009-07-24 07:52:14 51°24.857 2°50.944 7 301 16.1 101060 76
2009-07-24 07:52:19 51°24.872 2°50.941 5.6 266 16.2 101050 76
2009-07-24 07:52:24 51°24.887 2°50.938 6.1 281 16.2 101050 76
2009-07-24 07:52:29 51°24.902 2°50.937 6.1 263 16.2 101060 77
2009-07-24 07:52:34 51°24.917 2°50.933 4.8 303 16.2 101060 77
2009-07-24 07:52:39 51°24.932 2°50.931 7.4 263 16.2 101060 79
2009-07-24 07:52:44 51°24.947 2°50.928 5.7 309 16.2 101060 79
2009-07-24 07:52:49 51°24.962 2°50.926 5.2 263 16.2 101070 77
2009-07-24 07:52:54 51°24.977 2°50.924 8.3 305 16.2 101070 77
2009-07-24 07:52:59 51°24.992 2°50.921 6 263 16.2 101070 79
2009-07-24 07:53:04 51°25.007 2°50.919 5.7 310 16.2 101070 79
2009-07-24 07:53:09 51°25.022 2°50.916 6.2 261 16.3 101060 79
2009-07-24 07:53:14 51°25.037 2°50.913 5.7 303 16.3 101060 79
2009-07-24 07:53:19 51°25.052 2°50.91 5.8 263 16.3 101060 78
2009-07-24 07:53:24 51°25.067 2°50.908 6.3 305 16.3 101060 78
2009-07-24 07:53:29 51°25.082 2°50.906 7.7 261 16.3 101060 79
2009-07-24 07:53:34 51°25.097 2°50.901 9.1 303 16.3 101060 79
2009-07-24 07:53:39 51°25.112 2°50.901 9.3 261 16.3 101060 77
2009-07-24 07:53:44 51°25.126 2°50.896 6.9 307 16.3 101060 77
2009-07-24 07:53:49 51°25.141 2°50.894 6.4 264 16.3 101070 78
2009-07-24 07:53:54 51°25.156 2°50.891 6.6 309 16.3 101070 78
2009-07-24 07:53:59 51°25.171 2°50.888 9.5 261 16.3 101060 78
2009-07-24 07:54:04 51°25.186 2°50.885 7 306 16.3 101060 78
2009-07-24 07:54:09 51°25.201 2°50.881 8.4 262 16.3 101050 77
2009-07-24 07:54:14 51°25.217 2°50.88 9 310 16.3 101050 77
2009-07-24 07:54:19 51°25.232 2°50.876 8.8 258 16.2 101050 77
2009-07-24 07:54:24 51°25.247 2°50.873 7.9 277 16.2 101050 77
2009-07-24 07:54:29 51°25.262 2°50.87 6.7 258 16.2 101070 77
2009-07-24 07:54:34 51°25.277 2°50.868 7.5 304 16.2 101070 77
2009-07-24 07:54:39 51°25.292 2°50.865 6.4 261 16.2 101060 78
2009-07-24 07:54:44 51°25.307 2°50.862 6.7 309 16.2 101060 78
2009-07-24 07:54:49 51°25.322 2°50.859 6.6 264 16.2 101060 76
2009-07-24 07:54:54 51°25.338 2°50.857 5.4 304 16.2 101060 76
2009-07-24 07:54:59 51°25.353 2°50.854 7.7 260 16.3 101060 78
2009-07-24 07:55:04 51°25.368 2°50.852 6.2 307 16.3 101060 78
2009-07-24 07:55:09 51°25.383 2°50.849 6.7 263 16.2 101060 78
2009-07-24 07:55:14 51°25.398 2°50.847 6 308 16.2 101060 78
2009-07-24 07:55:19 51°25.413 2°50.844 8.4 262 16.2 101060 76
2009-07-24 07:55:24 51°25.429 2°50.841 5 308 16.2 101060 76
2009-07-24 07:55:29 51°25.444 2°50.84 6 267 16.2 101060 78
2009-07-24 07:55:34 51°25.459 2°50.836 6.2 302 16.2 101060 78
2009-07-24 07:55:39 51°25.474 2°50.834 5.9 265 16.2 101050 78
2009-07-24 07:55:44 51°25.489 2°50.832 6.6 307 16.2 101050 78
2009-07-24 07:55:49 51°25.504 2°50.827 6.5 260 16.2 101060 77
2009-07-24 07:55:54 51°25.519 2°50.826 6.5 305 16.2 101060 77
2009-07-24 07:55:59 51°25.534 2°50.822 6.2 267 16.2 101070 76
2009-07-24 07:56:04 51°25.549 2°50.82 6.5 305 16.2 101070 76
2009-07-24 07:56:09 51°25.564 2°50.819 8.5 266 16.2 101060 78
2009-07-24 07:56:14 51°25.579 2°50.814 5.7 301 16.2 101060 78
2009-07-24 07:56:19 51°25.594 2°50.814 5.8 265 16.2 101060 78
2009-07-24 07:56:24 51°25.609 2°50.811 6.3 279 16.2 101060 78
2009-07-24 07:56:29 51°25.624 2°50.808 6.2 263 16.2 101070 77
2009-07-24 07:56:34 51°25.639 2°50.805 7.3 303 16.2 101070 77
2009-07-24 07:56:39 51°25.654 2°50.802 5.3 263 16.2 101060 76
2009-07-24 07:56:44 51°25.669 2°50.799 6.8 302 16.2 101060 76
2009-07-24 07:56:49 51°25.684 2°50.796 6 260 16.2 101060 77
2009-07-24 07:56:54 51°25.699 2°50.795 5.4 302 16.2 101060 77
2009-07-24 07:56:59 51°25.714 2°50.79 6 264 16.2 101060 75
2009-07-24 07:57:04 51°25.728 2°50.789 6.1 303 16.2 101060 75
2009-07-24 07:57:09 51°25.744 2°50.785 6.5 263 16.2 101060 77
2009-07-24 07:57:14 51°25.759 2°50.782 8.3 304 16.2 101060 77
2009-07-24 07:57:19 51°25.774 2°50.779 6.7 262 16.2 101060 78
2009-07-24 07:57:24 51°25.789 2°50.775 7.6 302 16.2 101060 78
2009-07-24 07:57:29 51°25.804 2°50.773 5.8 260 16.2 101060 77
2009-07-24 07:57:34 51°25.819 2°50.769 6.2 307 16.2 101060 77
2009-07-24 07:57:39 51°25.834 2°50.767 7.5 264 16.2 101060 78
2009-07-24 07:57:44 51°25.849 2°50.764 6.1 309 16.2 101060 78
2009-07-24 07:57:49 51°25.865 2°50.761 6.3 267 16.2 101070 77
2009-07-24 07:57:54 51°25.88 2°50.758 6.9 302 16.2 101070 77
2009-07-24 07:57:59 51°25.895 2°50.756 7.4 265 16.2 101070 76
2009-07-24 07:58:04 51°25.91 2°50.751 6.4 308 16.2 101070 76
2009-07-24 07:58:09 51°25.925 2°50.75 6.5 264 16.2 101050 75
2009-07-24 07:58:14 51°25.94 2°50.746 7.2 301 16.2 101050 75
2009-07-24 07:58:19 51°25.955 2°50.744 5.6 265 16.2 101060 77
2009-07-24 07:58:24 51°25.971 2°50.739 6.7 280 16.2 101060 77
2009-07-24 07:58:29 51°25.986 2°50.739 5.6 270 16.2 101070 76
2009-07-24 07:58:34 51°26.001 2°50.735 5.4 308 16.2 101070 76
2009-07-24 07:58:39 51°26.016 2°50.733 5.4 266 16.2 101060 76
2009-07-24 07:58:44 51°26.031 2°50.73 6.6 309 16.2 101060 76
2009-07-24 07:58:50 51°26.049 2°50.727 7 266 16.2 101070 75
2009-07-24 07:58:54 51°26.061 2°50.726 6.4 304 16.2 101070 75
2009-07-24 07:58:59 51°26.077 2°50.721 6.1 268 16.2 101060 77
2009-07-24 07:59:04 51°26.092 2°50.721 6.1 303 16.2 101060 77
2009-07-24 07:59:09 51°26.107 2°50.716 5.4 262 16.2 101060 76
2009-07-24 07:59:14 51°26.122 2°50.715 5.8 309 16.2 101060 76
2009-07-24 07:59:19 51°26.137 2°50.711 5 262 16.2 101060 78
2009-07-24 07:59:24 51°26.153 2°50.711 6.2 284 16.2 101060 78
2009-07-24 07:59:29 51°26.168 2°50.707 5.7 261 16.2 101060 76
2009-07-24 07:59:34 51°26.183 2°50.705 4.5 306 16.2 101060 76
2009-07-24 07:59:39 51°26.198 2°50.703 6.2 266 16.2 101060 77
2009-07-24 07:59:44 51°26.213 2°50.699 5.9 307 16.2 101060 77
2009-07-24 07:59:49 51°26.228 2°50.698 4.9 265 16.2 101060 77
2009-07-24 07:59:54 51°26.243 2°50.694 5.5 305 16.2 101060 77
2009-07-24 07:59:59 51°26.259 2°50.692 6.2 267 16.3 101070 76
2009-07-24 08:00:04 51°26.274 2°50.689 6.5 301 16.3 101070 76
2009-07-24 08:00:09 51°26.289 2°50.687 5 265 16.2 101070 78
2009-07-24 08:00:14 51°26.304 2°50.686 6.8 303 16.2 101070 78
2009-07-24 08:00:19 51°26.319 2°50.682 4.4 264 16.3 101060 78
2009-07-24 08:00:24 51°26.335 2°50.682 5.2 282 16.3 101060 78
2009-07-24 08:00:29 51°26.35 2°50.679 6 261 16.3 101070 78
2009-07-24 08:00:34 51°26.365 2°50.677 4.8 302 16.3 101070 78
2009-07-24 08:00:39 51°26.38 2°50.673 5.8 265 16.3 101070 77
2009-07-24 08:00:44 51°26.395 2°50.672 4.8 309 16.3 101070 77
2009-07-24 08:00:49 51°26.411 2°50.669 6.7 267 16.3 101060 78
2009-07-24 08:00:54 51°26.426 2°50.666 5.5 303 16.3 101060 78
2009-07-24 08:00:59 51°26.441 2°50.664 7.8 261 16.3 101060 80
2009-07-24 08:01:04 51°26.456 2°50.661 5.6 301 16.3 101060 80
2009-07-24 08:01:10 51°26.475 2°50.658 6.2 261 16.3 101070 79
2009-07-24 08:01:14 51°26.487 2°50.656 6.1 304 16.3 101070 79
2009-07-24 08:01:19 51°26.502 2°50.653 6.5 263 16.3 101060 78
2009-07-24 08:01:24 51°26.517 2°50.651 6.2 280 16.3 101060 78
2009-07-24 08:01:29 51°26.533 2°50.648 8.1 269 16.4 101060 78
2009-07-24 08:01:34 51°26.548 2°50.646 6 307 16.4 101060 78
2009-07-24 08:01:39 51°26.563 2°50.642 5.2 263 16.4 101060 78
2009-07-24 08:01:44 51°26.579 2°50.641 7.1 302 16.4 101060 78
2009-07-24 08:01:49 51°26.594 2°50.637 4.9 265 16.4 101060 77
2009-07-24 08:01:54 51°26.609 2°50.635 6.5 301 16.4 101060 77
2009-07-24 08:01:59 51°26.625 2°50.633 6.5 263 16.3 101060 76
2009-07-24 08:02:04 51°26.64 2°50.629 6.3 308 16.3 101060 76
2009-07-24 08:02:09 51°26.655 2°50.629 8.2 268 16.3 101060 78
2009-07-24 08:02:14 51°26.67 2°50.624 6.6 301 16.3 101060 78
2009-07-24 08:02:19 51°26.685 2°50.623 7.1 257 16.4 101060 78
2009-07-24 08:02:24 51°26.7 2°50.621 6.7 281 16.4 101060 78
2009-07-24 08:02:29 51°26.715 2°50.617 5.5 267 16.4 101070 76
2009-07-24 08:02:34 51°26.73 2°50.617 8.3 304 16.4 101070 76
2009-07-24 08:02:39 51°26.746 2°50.613 5.8 270 16.3 101060 76
2009-07-24 08:02:44 51°26.761 2°50.613 4.4 306 16.3 101060 76
2009-07-24 08:02:50 51°26.779 2°50.609 5.3 264 16.3 101060 78
2009-07-24 08:02:54 51°26.791 2°50.61 5.5 308 16.3 101060 78
2009-07-24 08:02:59 51°26.806 2°50.608 5.1 268 16.3 101060 78
2009-07-24 08:03:04 51°26.821 2°50.606 5.1 301 16.3 101060 78
2009-07-24 08:03:10 51°26.84 2°50.604 6.2 267 16.3 101060 78
2009-07-24 08:03:14 51°26.851 2°50.602 5.3 304 16.3 101060 78
2009-07-24 08:03:19 51°26.866 2°50.602 5.7 264 16.4 101050 78
2009-07-24 08:03:24 51°26.881 2°50.598 5.1 302 16.4 101050 78
2009-07-24 08:03:30 51°26.899 2°50.597 5 263 16.4 101050 78
2009-07-24 08:03:34 51°26.911 2°50.596 5.5 303 16.4 101050 78
2009-07-24 08:03:39 51°26.926 2°50.594 6.6 267 16.4 101060 79
2009-07-24 08:03:44 51°26.941 2°50.59 6.3 304 16.4 101060 79
2009-07-24 08:03:49 51°26.956 2°50.589 6.5 263 16.4 101060 78
2009-07-24 08:03:54 51°26.971 2°50.586 4.7 308 16.4 101060 78
2009-07-24 08:03:59 51°26.986 2°50.584 4.9 263 16.4 101050 79
2009-07-24 08:04:04 51°27 2°50.583 5.9 303 16.4 101050 79
2009-07-24 08:04:09 51°27.015 2°50.58 5.3 263 16.4 101060 79
2009-07-24 08:04:14 51°27.03 2°50.577 7.5 308 16.4 101060 79
2009-07-24 08:04:19 51°27.045 2°50.575 8.4 260 16.4 101070 79
2009-07-24 08:04:24 51°27.06 2°50.573 8.2 281 16.4 101070 79
2009-07-24 08:04:29 51°27.075 2°50.571 5.6 262 16.4 101060 78
2009-07-24 08:04:34 51°27.09 2°50.568 6.2 304 16.4 101060 78
2009-07-24 08:04:39 51°27.105 2°50.568 9.6 259 16.4 101060 78
2009-07-24 08:04:44 51°27.12 2°50.565 8.3 303 16.4 101060 78
2009-07-24 08:04:49 51°27.135 2°50.562 6.4 263 16.4 101070 77
2009-07-24 08:04:54 51°27.15 2°50.562 8.2 305 16.4 101070 77
2009-07-24 08:04:59 51°27.165 2°50.558 6 262 16.4 101060 78
2009-07-24 08:05:04 51°27.18 2°50.558 7.7 308 16.4 101060 78
2009-07-24 08:05:10 51°27.198 2°50.555 8.7 260 16.4 101060 78
2009-07-24 08:05:14 51°27.211 2°50.554 7.9 302 16.4 101060 78
2009-07-24 08:05:19 51°27.225 2°50.552 7.7 261 16.4 101050 77
2009-07-24 08:05:24 51°27.241 2°50.55 7.3 308 16.4 101050 77
2009-07-24 08:05:30 51°27.259 2°50.548 6.4 262 16.4 101060 79
2009-07-24 08:05:34 51°27.271 2°50.548 8.5 308 16.4 101060 79
2009-07-24 08:05:39 51°27.286 2°50.544 8.1 256 16.4 101040 79
2009-07-24 08:05:44 51°27.301 2°50.543 6.7 302 16.4 101040 79
2009-07-24 08:05:49 51°27.316 2°50.541 7.4 260 16.4 101050 77
2009-07-24 08:05:54 51°27.331 2°50.539 6.8 301 16.4 101050 77
2009-07-24 08:05:59 51°27.347 2°50.538 7.9 258 16.4 101060 75
2009-07-24 08:06:04 51°27.361 2°50.536 5.4 307 16.4 101060 75
2009-07-24 08:06:09 51°27.377 2°50.534 6.8 263 16.4 101060 77
2009-07-24 08:06:14 51°27.392 2°50.532 5.9 308 16.4 101060 77
2009-07-24 08:06:19 51°27.407 2°50.53 6.8 261 16.4 101070 77
2009-07-24 08:06:24 51°27.422 2°50.528 7.5 278 16.4 101070 77
2009-07-24 08:06:29 51°27.437 2°50.526 5.1 262 16.4 101060 77
2009-07-24 08:06:34 51°27.452 2°50.523 7 304 16.4 101060 77
2009-07-24 08:06:39 51°27.467 2°50.522 6.7 262 16.4 101060 77
2009-07-24 08:06:44 51°27.482 2°50.519 7.1 304 16.4 101060 77
2009-07-24 08:06:49 51°27.497 2°50.517 6.5 266 16.4 101060 78
2009-07-24 08:06:54 51°27.512 2°50.516 6.6 307 16.4 101060 78
2009-07-24 08:06:59 51°27.528 2°50.513 5 262 16.3 101060 76
2009-07-24 08:07:04 51°27.543 2°50.51 6.6 302 16.3 101060 76
2009-07-24 08:07:09 51°27.557 2°50.509 8.3 259 16.3 101050 75
2009-07-24 08:07:14 51°27.572 2°50.505 6.4 304 16.3 101050 75